Time;durP1;ratioP1;P1;durP2;ratioP2;P2;SDS_P1;SDS_P2;PMS_P1;PMS_P2;Temp;Humidity;BMP_temperature;BMP_pressure;BME280_temperature;BME280_humidity;BME280_pressure;Samples;Min_cycle;Max_cycle;Signal;HPM_P1;HPM_P2
2021/12/21 00:00:30;;;;;;;;;;;;;;;-0.67;76.95;100571.20;1682924;83;22341;-82
2021/12/21 00:02:56;;;;;;;;;;;;;;;-0.73;77.46;100578.80;1663824;83;20187;-82
2021/12/21 00:05:27;;;;;;;;;;;;;;;-0.79;77.91;100573.47;1685367;83;20470;-83
2021/12/21 00:07:52;;;;;;;;;;;;;;;-0.89;78.59;100573.52;1689505;83;20549;-82
2021/12/21 00:10:20;;;;;;;;;;;;;;;-0.81;78.72;100564.94;1661428;83;20482;-81
2021/12/21 00:13:03;;;;;;;;;;;;;;;-0.75;78.90;100574.16;1697777;83;21112;-82
2021/12/21 00:15:32;;;;;;;;;;;;;;;-0.82;78.82;100561.95;1691443;83;20136;-82
2021/12/21 00:18:01;;;;;;;;;;;;;;;-0.84;79.41;100570.27;1683106;83;20168;-82
2021/12/21 00:25:34;;;;;;;;;;;;;;;-0.54;79.19;100556.73;1695343;83;20147;-82
2021/12/21 00:28:02;;;;;;;;;;;;;;;-0.49;79.22;100553.92;1688764;82;20558;-82
2021/12/21 00:30:30;;;;;;;;;;;;;;;-0.36;78.96;100564.05;1703972;83;20138;-82
2021/12/21 00:32:58;;;;;;;;;;;;;;;-0.42;77.77;100563.92;1681437;82;20217;-82
2021/12/21 00:35:25;;;;;;;;;;;;;;;-0.28;77.50;100564.97;1684201;83;20140;-82
2021/12/21 00:37:53;;;;;;;;;;;;;;;-0.29;76.39;100568.50;1692548;83;21151;-82
2021/12/21 00:40:22;;;;;;;;;;;;;;;-0.30;76.25;100568.11;1685397;83;20171;-82
2021/12/21 00:42:47;;;;;;;;;;;;;;;-0.13;76.14;100574.59;1696201;83;20141;-81
2021/12/21 00:45:13;;;;;;;;;;;;;;;-0.09;74.94;100578.72;1701703;83;20414;-80
2021/12/21 00:47:47;;;;;;;;;;;;;;;-0.11;75.01;100576.67;1692057;82;20196;-80
2021/12/21 00:50:16;;;;;;;;;;;;;;;0.00;74.64;100580.02;1699804;83;20535;-80
2021/12/21 00:52:39;;;;;;;;;;;;;;;-0.01;74.02;100576.56;1675938;83;20967;-81
2021/12/21 00:55:07;;;;;;;;;;;;;;;0.15;74.60;100577.09;1690668;83;20223;-82
2021/12/21 00:57:33;;;;;;;;;;;;;;;0.13;74.25;100577.63;1691443;83;20187;-82
2021/12/21 01:00:02;;;;;;;;;;;;;;;0.24;74.08;100577.91;1696213;83;20144;-81
2021/12/21 01:02:29;;;;;;;;;;;;;;;0.30;74.36;100576.30;1695036;83;20171;-83
2021/12/21 01:04:59;;;;;;;;;;;;;;;0.31;75.43;100584.48;1664501;83;20223;-85
2021/12/21 01:07:33;;;;;;;;;;;;;;;0.41;75.09;100582.70;1685102;83;20138;-83
2021/12/21 01:10:33;;;;;;;;;;;;;;;0.37;75.33;100587.20;1679499;83;20132;-83
2021/12/21 01:17:46;;;;;;;;;;;;;;;0.43;76.43;100587.34;1688572;83;20885;-83
2021/12/21 01:20:11;;;;;;;;;;;;;;;0.60;76.30;100592.95;1685829;83;20787;-83
2021/12/21 01:23:05;;;;;;;;;;;;;;;0.78;75.91;100598.92;1695854;83;20215;-83
2021/12/21 01:25:24;;;;;;;;;;;;;;;0.85;75.13;100596.38;1700667;83;20153;-82
2021/12/21 01:27:56;;;;;;;;;;;;;;;0.81;74.52;100600.05;1710982;83;20127;-83
2021/12/21 01:30:24;;;;;;;;;;;;;;;0.77;74.92;100598.56;1696008;83;20207;-82
2021/12/21 01:33:01;;;;;;;;;;;;;;;0.81;74.55;100605.25;1696938;83;20159;-83
2021/12/21 01:35:31;;;;;;;;;;;;;;;0.87;73.87;100600.59;1706854;83;20151;-83
2021/12/21 01:38:43;;;;;;;;;;;;;;;0.58;72.99;100599.54;1713455;82;20192;-83
2021/12/21 01:40:44;;;;;;;;;;;;;;;0.54;72.42;100596.70;1681050;83;20219;-83
2021/12/21 01:43:18;;;;;;;;;;;;;;;0.62;72.23;100602.36;1707788;83;20223;-83
2021/12/21 01:51:09;;;;;;;;;;;;;;;0.66;70.62;100599.13;1703667;83;20163;-81
2021/12/21 01:53:36;;;;;;;;;;;;;;;0.58;70.35;100603.91;1675393;83;21038;-82
2021/12/21 01:56:02;;;;;;;;;;;;;;;0.55;70.20;100607.49;1710330;83;20160;-82
2021/12/21 01:58:30;;;;;;;;;;;;;;;0.52;70.35;100602.45;1704397;83;20274;-83
2021/12/21 02:00:55;;;;;;;;;;;;;;;0.54;70.31;100611.00;1706163;82;20216;-82
2021/12/21 02:03:21;;;;;;;;;;;;;;;0.45;70.06;100603.69;1694548;82;20183;-83
2021/12/21 02:05:50;;;;;;;;;;;;;;;0.54;70.05;100599.31;1705046;83;21153;-81
2021/12/21 02:08:16;;;;;;;;;;;;;;;0.52;69.59;100602.45;1707791;83;20179;-82
2021/12/21 02:10:43;;;;;;;;;;;;;;;0.44;69.26;100604.62;1706007;83;20219;-81
2021/12/21 02:13:12;;;;;;;;;;;;;;;0.40;69.55;100603.09;1711425;83;20155;-82
2021/12/21 02:15:39;;;;;;;;;;;;;;;0.39;68.62;100598.81;1700268;83;20224;-81
2021/12/21 02:19:18;;;;;;;;;;;;;;;0.28;68.80;100601.52;1711515;83;21075;-81
2021/12/21 02:20:50;;;;;;;;;;;;;;;0.24;68.58;100597.39;1690666;83;20489;-80
2021/12/21 02:23:20;;;;;;;;;;;;;;;0.28;67.99;100601.52;1687264;83;20818;-80
2021/12/21 02:30:57;;;;;;;;;;;;;;;-0.07;66.54;100616.28;1699910;83;20123;-82
2021/12/21 02:33:23;;;;;;;;;;;;;;;-0.12;65.81;100611.79;1701585;83;21198;-81
2021/12/21 02:35:50;;;;;;;;;;;;;;;-0.08;66.16;100605.51;1697393;83;20506;-82
2021/12/21 02:38:15;;;;;;;;;;;;;;;-0.07;66.03;100609.33;1684132;83;20196;-81
2021/12/21 02:40:43;;;;;;;;;;;;;;;-0.16;65.63;100614.14;1691141;83;21201;-83
2021/12/21 02:43:10;;;;;;;;;;;;;;;-0.23;65.30;100616.21;1687773;83;21095;-83
2021/12/21 02:45:39;;;;;;;;;;;;;;;-0.19;65.25;100617.72;1689544;83;20208;-82
2021/12/21 02:48:04;;;;;;;;;;;;;;;-0.30;65.28;100613.52;1686110;83;20152;-83
2021/12/21 02:50:31;;;;;;;;;;;;;;;-0.45;64.62;100622.45;1674651;83;20312;-79
2021/12/21 02:53:02;;;;;;;;;;;;;;;-0.35;64.74;100633.67;1684464;83;20180;-81
2021/12/21 02:55:29;;;;;;;;;;;;;;;-0.38;64.51;100621.68;1691817;83;21123;-80
2021/12/21 02:57:57;;;;;;;;;;;;;;;-0.34;64.33;100627.55;1687771;83;20160;-81
2021/12/21 03:00:25;;;;;;;;;;;;;;;-0.35;64.37;100628.02;1681844;83;20140;-81
2021/12/21 03:02:51;;;;;;;;;;;;;;;-0.33;63.64;100626.65;1647547;83;20112;-79
2021/12/21 03:05:17;;;;;;;;;;;;;;;-0.25;64.14;100633.59;1694360;83;21039;-78
2021/12/21 03:10:30;;;;;;;;;;;;;;;-0.23;63.78;100638.27;1690368;83;20188;-82
2021/12/21 03:15:30;;;;;;;;;;;;;;;-0.04;63.35;100626.05;1688027;83;20152;-82
2021/12/21 03:18:00;;;;;;;;;;;;;;;-0.04;63.66;100626.05;1699171;83;20124;-81
2021/12/21 03:20:27;;;;;;;;;;;;;;;-0.05;63.38;100632.17;1661446;83;20984;-83
2021/12/21 03:22:58;;;;;;;;;;;;;;;-0.09;63.57;100637.13;1682723;83;20133;-83
2021/12/21 03:25:23;;;;;;;;;;;;;;;-0.17;63.61;100640.57;1686375;83;20123;-83
2021/12/21 03:27:51;;;;;;;;;;;;;;;-0.45;63.41;100649.69;1685091;83;21042;-83
2021/12/21 03:30:18;;;;;;;;;;;;;;;-0.50;64.33;100656.83;1694579;83;20109;-83
2021/12/21 03:32:45;;;;;;;;;;;;;;;-0.43;64.06;100660.82;1664180;83;20160;-83
2021/12/21 03:35:11;;;;;;;;;;;;;;;-0.55;64.35;100663.99;1691789;83;20188;-82
2021/12/21 03:37:36;;;;;;;;;;;;;;;-0.57;64.38;100658.05;1688030;83;20205;-86
2021/12/21 03:40:03;;;;;;;;;;;;;;;-0.51;64.48;100662.09;1685429;83;20480;-85
2021/12/21 03:42:29;;;;;;;;;;;;;;;-0.40;64.47;100664.56;1700642;83;20240;-85
2021/12/21 03:44:55;;;;;;;;;;;;;;;-0.37;64.37;100657.94;1691838;83;21177;-84
2021/12/21 03:47:22;;;;;;;;;;;;;;;-0.52;64.51;100659.95;1691600;83;20197;-84
2021/12/21 03:49:57;;;;;;;;;;;;;;;-0.75;64.69;100664.92;1681915;83;20498;-84
2021/12/21 03:52:22;;;;;;;;;;;;;;;-0.75;64.73;100669.64;1684338;83;20168;-84
2021/12/21 03:54:53;;;;;;;;;;;;;;;-0.66;65.11;100662.37;1685841;83;20268;-84
2021/12/21 03:57:18;;;;;;;;;;;;;;;-0.77;64.91;100663.70;1688596;83;21257;-84
2021/12/21 03:59:44;;;;;;;;;;;;;;;-0.78;65.03;100660.73;1701487;83;20507;-84
2021/12/21 04:02:11;;;;;;;;;;;;;;;-0.87;65.45;100672.83;1686936;83;20276;-84
2021/12/21 04:04:40;;;;;;;;;;;;;;;-0.75;65.67;100673.53;1689494;83;20212;-84
2021/12/21 04:07:06;;;;;;;;;;;;;;;-0.72;65.39;100683.77;1682893;83;20196;-83
2021/12/21 04:09:31;;;;;;;;;;;;;;;-0.60;65.14;100689.31;1689965;83;21183;-83
2021/12/21 04:11:57;;;;;;;;;;;;;;;-0.56;65.59;100692.13;1689222;83;20303;-83
2021/12/21 04:14:23;;;;;;;;;;;;;;;-0.51;65.62;100696.67;1684860;83;21277;-82
2021/12/21 04:16:49;;;;;;;;;;;;;;;-0.61;66.60;100701.42;1695643;83;20164;-83
2021/12/21 04:19:17;;;;;;;;;;;;;;;-0.48;66.25;100701.72;1684116;83;20529;-83
2021/12/21 04:21:42;;;;;;;;;;;;;;;-0.50;65.96;100712.60;1684100;83;20173;-83
2021/12/21 04:24:08;;;;;;;;;;;;;;;-0.64;65.28;100721.48;1688391;83;20168;-83
2021/12/21 04:26:33;;;;;;;;;;;;;;;-0.77;64.93;100718.15;1680437;83;20447;-83
2021/12/21 04:28:59;;;;;;;;;;;;;;;-0.76;64.51;100723.73;1683784;83;20537;-82
2021/12/21 04:31:24;;;;;;;;;;;;;;;-0.90;64.27;100735.19;1688190;83;20202;-82
2021/12/21 04:33:50;;;;;;;;;;;;;;;-0.93;64.63;100743.93;1694463;83;21092;-83
2021/12/21 04:36:16;;;;;;;;;;;;;;;-0.95;64.01;100748.78;1678972;83;20230;-82
2021/12/21 04:38:45;;;;;;;;;;;;;;;-1.15;64.00;100750.52;1689350;83;20852;-82
2021/12/21 04:41:14;;;;;;;;;;;;;;;-1.14;63.80;100752.17;1687199;83;20163;-83
2021/12/21 04:43:37;;;;;;;;;;;;;;;-1.22;63.23;100756.86;1704105;83;20181;-83
2021/12/21 04:46:03;;;;;;;;;;;;;;;-1.48;63.11;100757.95;1687066;83;21078;-83
2021/12/21 04:48:29;;;;;;;;;;;;;;;-1.52;63.70;100762.44;1692903;83;20246;-82
2021/12/21 04:50:54;;;;;;;;;;;;;;;-1.59;63.55;100764.88;1693664;83;20180;-82
2021/12/21 04:53:20;;;;;;;;;;;;;;;-1.69;63.24;100767.47;1699491;83;20176;-82
2021/12/21 04:55:45;;;;;;;;;;;;;;;-1.59;63.40;100773.94;1679605;83;20231;-83
2021/12/21 04:58:11;;;;;;;;;;;;;;;-1.57;62.76;100786.83;1702276;83;21107;-83
2021/12/21 05:00:39;;;;;;;;;;;;;;;-1.58;62.49;100791.17;1692146;83;20178;-83
2021/12/21 05:03:04;;;;;;;;;;;;;;;-1.54;62.03;100790.16;1689055;83;20133;-83
2021/12/21 05:05:30;;;;;;;;;;;;;;;-1.60;61.44;100790.41;1680050;83;20148;-83
2021/12/21 05:08:08;;;;;;;;;;;;;;;-1.62;61.05;100798.66;1683549;83;20466;-83
2021/12/21 05:10:42;;;;;;;;;;;;;;;-1.59;61.17;100796.41;1689046;83;20154;-83
2021/12/21 05:13:03;;;;;;;;;;;;;;;-1.60;60.38;100798.17;1701462;83;20189;-83
2021/12/21 05:15:29;;;;;;;;;;;;;;;-1.50;59.87;100804.64;1693263;83;20407;-83
2021/12/21 05:17:54;;;;;;;;;;;;;;;-1.46;59.33;100808.80;1692461;83;20483;-83
2021/12/21 05:20:20;;;;;;;;;;;;;;;-1.67;58.42;100812.26;1691041;83;20124;-83
2021/12/21 05:22:48;;;;;;;;;;;;;;;-1.62;58.67;100812.91;1690125;83;22026;-83
2021/12/21 05:25:13;;;;;;;;;;;;;;;-1.58;58.16;100814.48;1699759;83;20147;-82
2021/12/21 05:27:41;;;;;;;;;;;;;;;-1.68;57.94;100818.33;1695863;83;20187;-83
2021/12/21 05:30:07;;;;;;;;;;;;;;;-1.61;58.06;100819.78;1706707;83;20129;-86
2021/12/21 05:32:32;;;;;;;;;;;;;;;-1.69;57.68;100817.96;1697883;83;20263;-84
2021/12/21 05:34:58;;;;;;;;;;;;;;;-1.68;57.49;100818.33;1698930;83;21046;-84
2021/12/21 05:37:23;;;;;;;;;;;;;;;-1.67;57.53;100817.44;1697830;83;20195;-84
2021/12/21 05:40:10;;;;;;;;;;;;;;;-2.08;57.49;100820.75;1701621;83;20460;-82
2021/12/21 05:42:25;;;;;;;;;;;;;;;-2.07;57.58;100826.75;1708187;83;20117;-84
2021/12/21 05:44:51;;;;;;;;;;;;;;;-2.09;57.19;100827.27;1698205;83;20152;-83
2021/12/21 05:47:17;;;;;;;;;;;;;;;-2.16;56.99;100830.52;1706738;83;21142;-84
2021/12/21 05:49:43;;;;;;;;;;;;;;;-2.27;57.28;100828.37;1709093;83;20152;-84
2021/12/21 05:52:08;;;;;;;;;;;;;;;-2.23;56.88;100835.09;1687939;83;20529;-83
2021/12/21 05:54:34;;;;;;;;;;;;;;;-2.43;57.89;100833.70;1695329;83;20581;-84
2021/12/21 05:57:00;;;;;;;;;;;;;;;-2.44;57.16;100842.34;1697482;83;20164;-82
2021/12/21 05:59:25;;;;;;;;;;;;;;;-2.72;57.62;100848.50;1698753;83;21609;-81
2021/12/21 06:01:51;;;;;;;;;;;;;;;-2.84;57.94;100838.59;1691759;83;20179;-84
2021/12/21 06:04:16;;;;;;;;;;;;;;;-2.67;58.64;100847.91;1691392;83;20175;-84
2021/12/21 06:06:42;;;;;;;;;;;;;;;-2.67;58.40;100842.74;1708327;83;20299;-82
2021/12/21 06:09:11;;;;;;;;;;;;;;;-2.67;58.28;100851.79;1700927;83;20589;-85
2021/12/21 06:11:43;;;;;;;;;;;;;;;-2.76;57.44;100855.53;1703413;83;20105;-82
2021/12/21 06:27:08;;;;;;;;;;;;;;;-2.98;57.50;100879.98;1704907;83;20136;-82
2021/12/21 06:29:34;;;;;;;;;;;;;;;-3.04;56.83;100869.85;1705139;83;20115;-85
2021/12/21 06:31:59;;;;;;;;;;;;;;;-2.98;57.32;100882.56;1708377;83;20155;-81
2021/12/21 06:34:25;;;;;;;;;;;;;;;-3.00;57.44;100883.05;1717236;82;20796;-81
2021/12/21 06:36:51;;;;;;;;;;;;;;;-2.96;57.40;100883.34;1716679;83;21179;-84
2021/12/21 06:39:17;;;;;;;;;;;;;;;-2.87;57.36;100881.34;1711889;82;20123;-83
2021/12/21 06:41:43;;;;;;;;;;;;;;;-3.20;57.11;100883.73;1705226;83;20223;-81
2021/12/21 06:44:10;;;;;;;;;;;;;;;-3.53;58.12;100892.09;1709195;82;20310;-83
2021/12/21 06:47:05;;;;;;;;;;;;;;;-3.40;58.83;100898.58;1715615;83;20166;-84
2021/12/21 06:52:00;;;;;;;;;;;;;;;-3.53;58.84;100905.00;1715738;83;20167;-78
2021/12/21 06:54:26;;;;;;;;;;;;;;;-3.44;59.01;100904.72;1701594;82;20175;-83
2021/12/21 06:56:52;;;;;;;;;;;;;;;-3.25;58.57;100908.42;1708276;83;20228;-81
2021/12/21 06:59:17;;;;;;;;;;;;;;;-3.28;58.46;100908.52;1707617;82;20127;-84
2021/12/21 07:01:43;;;;;;;;;;;;;;;-3.20;58.64;100906.11;1710606;83;21068;-81
2021/12/21 07:04:10;;;;;;;;;;;;;;;-3.10;58.75;100901.06;1712233;83;20619;-82
2021/12/21 07:06:36;;;;;;;;;;;;;;;-3.09;58.43;100902.76;1712629;83;20114;-82
2021/12/21 07:09:10;;;;;;;;;;;;;;;-2.99;58.32;100904.13;1703431;82;20520;-83
2021/12/21 07:11:39;;;;;;;;;;;;;;;-3.09;58.51;100906.63;1717270;83;20164;-83
2021/12/21 07:19:26;;;;;;;;;;;;;;;-2.86;58.42;100914.05;1699574;83;20167;-84
2021/12/21 07:21:51;;;;;;;;;;;;;;;-2.93;58.15;100918.13;1706691;83;20127;-82
2021/12/21 07:24:17;;;;;;;;;;;;;;;-3.00;58.27;100917.93;1715342;83;20175;-83
2021/12/21 07:26:42;;;;;;;;;;;;;;;-2.93;58.25;100920.72;1705890;83;21257;-83
2021/12/21 07:29:08;;;;;;;;;;;;;;;-2.96;58.00;100924.69;1694274;83;20473;-85
2021/12/21 07:31:33;;;;;;;;;;;;;;;-2.93;58.23;100924.59;1699805;83;20448;-82
2021/12/21 07:33:59;;;;;;;;;;;;;;;-2.94;58.33;100919.02;1707950;82;20131;-84
2021/12/21 07:36:29;;;;;;;;;;;;;;;-2.93;58.54;100919.88;1703125;83;21185;-83
2021/12/21 07:38:54;;;;;;;;;;;;;;;-2.97;58.33;100920.41;1699277;83;20167;-83
2021/12/21 07:41:20;;;;;;;;;;;;;;;-2.84;58.30;100920.00;1707053;83;20220;-83
2021/12/21 07:43:46;;;;;;;;;;;;;;;-2.82;58.45;100920.82;1705417;82;20259;-84
2021/12/21 07:46:11;;;;;;;;;;;;;;;-2.72;58.46;100926.05;1702797;83;20168;-82
2021/12/21 07:48:37;;;;;;;;;;;;;;;-2.67;58.09;100925.47;1714705;83;20130;-85
2021/12/21 07:51:05;;;;;;;;;;;;;;;-2.72;57.72;100928.64;1704978;83;21148;-84
2021/12/21 07:53:33;;;;;;;;;;;;;;;-2.59;57.54;100931.22;1702104;83;20241;-84
2021/12/21 07:56:04;;;;;;;;;;;;;;;-2.64;57.68;100933.13;1710185;83;20280;-86
2021/12/21 07:58:30;;;;;;;;;;;;;;;-2.61;57.45;100933.45;1699765;83;20977;-84
2021/12/21 08:01:02;;;;;;;;;;;;;;;-2.61;57.25;100934.73;1701405;83;20183;-86
2021/12/21 08:03:33;;;;;;;;;;;;;;;-2.71;56.78;100939.39;1682607;83;20120;-85
2021/12/21 08:06:01;;;;;;;;;;;;;;;-2.75;56.66;100942.53;1709026;83;20121;-86
2021/12/21 08:08:29;;;;;;;;;;;;;;;-2.67;56.41;100940.98;1702998;83;20173;-86
2021/12/21 08:13:22;;;;;;;;;;;;;;;-2.67;56.82;100951.33;1663531;83;20236;-84
2021/12/21 08:15:51;;;;;;;;;;;;;;;-2.72;56.23;100953.20;1707480;83;21148;-85
2021/12/21 08:18:17;;;;;;;;;;;;;;;-2.67;56.03;100948.74;1705344;83;20171;-84
2021/12/21 08:20:42;;;;;;;;;;;;;;;-2.60;55.87;100946.32;1699569;82;20408;-85
2021/12/21 08:23:08;;;;;;;;;;;;;;;-2.59;55.76;100941.56;1694957;83;20159;-85
2021/12/21 08:25:40;;;;;;;;;;;;;;;-2.51;55.96;100941.75;1693529;83;20139;-84
2021/12/21 08:28:06;;;;;;;;;;;;;;;-2.50;55.62;100946.01;1702136;83;21137;-83
2021/12/21 08:30:34;;;;;;;;;;;;;;;-2.51;54.84;100945.63;1697315;83;20191;-83
2021/12/21 08:33:00;;;;;;;;;;;;;;;-2.60;55.03;100939.86;1698694;83;20116;-83
2021/12/21 08:35:26;;;;;;;;;;;;;;;-2.45;55.67;100937.67;1699834;83;20187;-82
2021/12/21 08:37:59;;;;;;;;;;;;;;;-2.36;55.41;100931.71;1696933;83;20309;-84
2021/12/21 08:40:21;;;;;;;;;;;;;;;-2.32;54.77;100931.14;1705681;83;20221;-84
2021/12/21 08:42:49;;;;;;;;;;;;;;;-2.28;54.51;100931.91;1701289;83;20116;-84
2021/12/21 08:45:14;;;;;;;;;;;;;;;-2.27;54.18;100931.84;1698518;83;20192;-82
2021/12/21 08:47:41;;;;;;;;;;;;;;;-2.30;53.80;100924.63;1698099;83;20117;-85
2021/12/21 08:50:12;;;;;;;;;;;;;;;-2.42;53.52;100929.80;1700112;83;20174;-85
2021/12/21 08:52:41;;;;;;;;;;;;;;;-2.24;53.50;100936.05;1697698;83;20158;-85
2021/12/21 08:55:08;;;;;;;;;;;;;;;-2.23;53.06;100933.41;1682058;83;20208;-85
2021/12/21 08:57:37;;;;;;;;;;;;;;;-2.25;52.73;100928.75;1698976;83;20215;-86
2021/12/21 09:00:08;;;;;;;;;;;;;;;-2.43;53.32;100931.52;1670431;83;20251;-83
2021/12/21 09:02:38;;;;;;;;;;;;;;;-2.57;54.09;100931.16;1703258;83;20485;-84
2021/12/21 09:05:10;;;;;;;;;;;;;;;-2.59;54.48;100927.34;1697042;83;20713;-85
2021/12/21 09:07:32;;;;;;;;;;;;;;;-2.59;54.81;100926.05;1691710;83;20226;-84
2021/12/21 09:10:01;;;;;;;;;;;;;;;-2.76;55.07;100928.37;1696499;83;20562;-86
2021/12/21 09:12:27;;;;;;;;;;;;;;;-3.10;55.59;100927.73;1694582;83;20517;-83
2021/12/21 09:14:52;;;;;;;;;;;;;;;-3.09;56.50;100927.30;1686409;83;20630;-83
2021/12/21 09:17:18;;;;;;;;;;;;;;;-2.86;56.14;100929.56;1693806;83;21040;-84
2021/12/21 09:19:43;;;;;;;;;;;;;;;-3.00;55.37;100924.39;1690849;83;20171;-83
2021/12/21 09:22:09;;;;;;;;;;;;;;;-2.98;56.12;100926.50;1690801;83;20600;-84
2021/12/21 09:24:35;;;;;;;;;;;;;;;-3.07;55.54;100923.75;1697862;83;20148;-85
2021/12/21 09:27:00;;;;;;;;;;;;;;;-3.12;55.32;100916.61;1696419;83;20911;-84
2021/12/21 09:29:26;;;;;;;;;;;;;;;-3.04;55.14;100926.70;1697098;83;21203;-84
2021/12/21 09:31:51;;;;;;;;;;;;;;;-3.14;54.31;100926.58;1699933;83;20965;-84
2021/12/21 09:34:17;;;;;;;;;;;;;;;-3.13;53.42;100922.66;1690186;83;20195;-84
2021/12/21 09:36:42;;;;;;;;;;;;;;;-3.08;53.73;100917.34;1699378;83;20990;-84
2021/12/21 09:39:08;;;;;;;;;;;;;;;-3.11;53.05;100915.73;1695791;83;20196;-85
2021/12/21 09:41:34;;;;;;;;;;;;;;;-3.09;52.78;100911.80;1695621;83;21126;-83
2021/12/21 09:44:01;;;;;;;;;;;;;;;-3.28;51.77;100907.66;1695176;83;21087;-85
2021/12/21 09:46:26;;;;;;;;;;;;;;;-3.12;52.03;100906.27;1704135;83;21225;-85
2021/12/21 09:48:52;;;;;;;;;;;;;;;-3.10;51.20;100904.94;1688122;83;20151;-83
2021/12/21 09:51:17;;;;;;;;;;;;;;;-3.02;50.03;100904.23;1690586;83;20144;-87
2021/12/21 09:53:43;;;;;;;;;;;;;;;-3.12;48.74;100903.69;1692378;83;20629;-87
2021/12/21 09:56:09;;;;;;;;;;;;;;;-3.13;48.30;100898.58;1695523;83;20151;-84
2021/12/21 09:58:34;;;;;;;;;;;;;;;-3.13;49.23;100899.41;1697515;83;20320;-83
2021/12/21 10:01:00;;;;;;;;;;;;;;;-3.23;49.49;100906.21;1691554;83;20634;-85
2021/12/21 10:03:26;;;;;;;;;;;;;;;-3.17;49.70;100903.01;1689021;83;20233;-85
2021/12/21 10:06:01;;;;;;;;;;;;;;;-2.98;48.95;100901.08;1686512;83;21230;-85
2021/12/21 10:08:27;;;;;;;;;;;;;;;-3.00;47.97;100899.00;1691190;83;20222;-84
2021/12/21 10:10:53;;;;;;;;;;;;;;;-3.20;47.09;100897.08;1668454;83;20157;-86
2021/12/21 10:13:20;;;;;;;;;;;;;;;-3.29;47.19;100896.48;1688872;83;20146;-84
2021/12/21 10:15:48;;;;;;;;;;;;;;;-3.03;48.40;100890.93;1686521;83;20215;-84
2021/12/21 10:18:14;;;;;;;;;;;;;;;-3.03;48.40;100891.36;1696806;83;21057;-84
2021/12/21 10:20:43;;;;;;;;;;;;;;;-3.21;47.22;100888.95;1692495;83;20257;-84
2021/12/21 10:23:19;;;;;;;;;;;;;;;-3.30;47.77;100880.58;1690900;83;35157;-84
2021/12/21 10:25:54;;;;;;;;;;;;;;;-3.25;49.05;100890.34;1694531;83;20117;-83
2021/12/21 10:28:32;;;;;;;;;;;;;;;-2.98;49.71;100895.48;1690912;83;21028;-85
2021/12/21 10:31:00;;;;;;;;;;;;;;;-3.03;49.28;100902.55;1692477;83;21905;-80
2021/12/21 10:33:26;;;;;;;;;;;;;;;-3.03;49.43;100899.97;1692137;83;20368;-85
2021/12/21 10:35:53;;;;;;;;;;;;;;;-3.21;51.34;100900.57;1692369;83;20530;-85
2021/12/21 10:38:28;;;;;;;;;;;;;;;-3.21;52.27;100892.83;1693059;83;20224;-86
2021/12/21 10:40:56;;;;;;;;;;;;;;;-3.13;53.05;100900.70;1692248;83;20228;-84
2021/12/21 10:43:30;;;;;;;;;;;;;;;-3.11;51.95;100901.94;1690347;83;21033;-83
2021/12/21 10:45:55;;;;;;;;;;;;;;;-3.21;51.99;100913.48;1693257;83;20146;-88
2021/12/21 10:48:23;;;;;;;;;;;;;;;-3.07;51.60;100899.66;1693739;83;20227;-84
2021/12/21 10:50:49;;;;;;;;;;;;;;;-3.15;52.14;100906.83;1672489;83;20455;-86
2021/12/21 10:53:23;;;;;;;;;;;;;;;-3.00;52.11;100902.88;1664810;83;20324;-86
2021/12/21 10:56:07;;;;;;;;;;;;;;;-2.94;52.30;100907.39;1688851;83;21101;-84
2021/12/21 10:58:39;;;;;;;;;;;;;;;-2.92;52.42;100892.70;1684437;83;20252;-85
2021/12/21 11:01:08;;;;;;;;;;;;;;;-3.09;53.25;100892.42;1672416;83;20125;-86
2021/12/21 11:03:51;;;;;;;;;;;;;;;-3.02;53.25;100888.72;1690058;83;20680;-84
2021/12/21 11:06:18;;;;;;;;;;;;;;;-3.05;52.41;100890.11;1661099;83;20729;-85
2021/12/21 11:08:47;;;;;;;;;;;;;;;-3.13;51.97;100892.12;1698593;83;21183;-84
2021/12/21 11:11:28;;;;;;;;;;;;;;;-3.17;52.05;100904.73;1695366;83;20151;-85
2021/12/21 11:14:05;;;;;;;;;;;;;;;-3.14;51.72;100876.21;1684509;83;20513;-84
2021/12/21 11:16:44;;;;;;;;;;;;;;;-3.17;51.93;100884.06;1700411;83;20201;-82
2021/12/21 11:19:12;;;;;;;;;;;;;;;-3.12;51.52;100877.02;1686366;83;20851;-82
2021/12/21 11:21:41;;;;;;;;;;;;;;;-3.11;51.56;100876.11;1691028;83;21152;-84
2021/12/21 11:24:08;;;;;;;;;;;;;;;-3.08;51.23;100876.00;1687459;83;20244;-81
2021/12/21 11:26:35;;;;;;;;;;;;;;;-2.95;51.96;100879.02;1653380;83;20182;-83
2021/12/21 11:29:08;;;;;;;;;;;;;;;-2.94;51.61;100886.72;1689810;83;20235;-82
2021/12/21 11:31:39;;;;;;;;;;;;;;;-2.89;51.52;100886.14;1650746;83;20477;-82
2021/12/21 11:34:12;;;;;;;;;;;;;;;-3.00;51.56;100886.92;1685417;83;21109;-83
2021/12/21 11:39:24;;;;;;;;;;;;;;;-2.84;51.46;100873.48;1679883;83;20156;-82
2021/12/21 11:41:52;;;;;;;;;;;;;;;-2.74;51.55;100877.45;1682560;83;21087;-82
2021/12/21 11:44:30;;;;;;;;;;;;;;;-2.77;51.27;100876.27;1661508;83;21005;-82
2021/12/21 11:47:01;;;;;;;;;;;;;;;-2.65;51.36;100888.77;1672477;83;21168;-82
2021/12/21 11:49:32;;;;;;;;;;;;;;;-2.60;50.95;100880.39;1686055;83;20156;-83
2021/12/21 11:52:10;;;;;;;;;;;;;;;-2.54;50.84;100887.94;1682823;83;20208;-84
2021/12/21 11:54:43;;;;;;;;;;;;;;;-2.38;50.29;100888.25;1685611;83;20142;-83
2021/12/21 11:57:09;;;;;;;;;;;;;;;-2.54;49.98;100873.71;1680616;83;20163;-82
2021/12/21 11:59:36;;;;;;;;;;;;;;;-2.46;50.18;100876.48;1683178;83;21848;-83
2021/12/21 12:02:06;;;;;;;;;;;;;;;-2.46;50.19;100881.66;1690793;83;20175;-82
2021/12/21 12:04:33;;;;;;;;;;;;;;;-2.66;50.31;100884.48;1688685;83;20159;-83
2021/12/21 12:07:05;;;;;;;;;;;;;;;-2.49;50.98;100866.25;1680496;83;20214;-84
2021/12/21 12:09:32;;;;;;;;;;;;;;;-2.26;51.36;100876.59;1669332;83;21040;-81
2021/12/21 12:12:13;;;;;;;;;;;;;;;-2.20;52.56;100883.30;1686525;83;21921;-82
2021/12/21 12:14:40;;;;;;;;;;;;;;;-2.10;53.64;100872.16;1678707;83;20157;-81
2021/12/21 12:17:20;;;;;;;;;;;;;;;-2.10;55.04;100876.87;1686464;83;20465;-84
2021/12/21 12:19:54;;;;;;;;;;;;;;;-2.07;55.72;100875.92;1684053;83;20189;-84
2021/12/21 12:22:24;;;;;;;;;;;;;;;-2.09;56.75;100878.56;1688932;83;20231;-83
2021/12/21 12:24:55;;;;;;;;;;;;;;;-2.27;57.45;100881.40;1693041;83;20550;-83
2021/12/21 12:27:23;;;;;;;;;;;;;;;-2.21;57.89;100874.68;1684161;83;20144;-83
2021/12/21 12:29:50;;;;;;;;;;;;;;;-2.22;58.63;100873.02;1682666;83;20152;-80
2021/12/21 12:32:16;;;;;;;;;;;;;;;-1.89;58.78;100877.81;1677365;83;20220;-81
2021/12/21 12:34:42;;;;;;;;;;;;;;;-1.93;59.95;100876.23;1693139;82;20263;-81
2021/12/21 12:37:21;;;;;;;;;;;;;;;-1.89;60.69;100876.98;1687444;83;21216;-82
2021/12/21 12:39:49;;;;;;;;;;;;;;;-1.78;60.54;100868.81;1684531;83;20137;-81
2021/12/21 12:42:24;;;;;;;;;;;;;;;-1.84;61.16;100870.71;1682881;83;20204;-79
2021/12/21 12:44:56;;;;;;;;;;;;;;;-1.70;61.37;100862.88;1696806;83;21059;-80
2021/12/21 12:47:19;;;;;;;;;;;;;;;-1.92;60.97;100875.81;1690127;83;20141;-82
2021/12/21 12:49:50;;;;;;;;;;;;;;;-1.76;61.40;100866.99;1687458;83;21164;-83
2021/12/21 12:52:18;;;;;;;;;;;;;;;-1.76;61.74;100873.00;1690889;83;20136;-80
2021/12/21 12:54:52;;;;;;;;;;;;;;;-1.61;61.96;100852.62;1687942;83;20173;-78
2021/12/21 12:57:29;;;;;;;;;;;;;;;-1.57;62.03;100865.38;1683241;83;20257;-79
2021/12/21 13:00:00;;;;;;;;;;;;;;;-1.54;62.46;100871.73;1692308;83;20190;-81
2021/12/21 13:02:27;;;;;;;;;;;;;;;-1.59;63.10;100876.70;1692887;83;21173;-79
2021/12/21 13:04:53;;;;;;;;;;;;;;;-1.48;63.40;100848.61;1672293;83;21154;-80
2021/12/21 13:07:26;;;;;;;;;;;;;;;-1.46;63.44;100863.20;1690770;83;20204;-82
2021/12/21 13:10:02;;;;;;;;;;;;;;;-1.38;63.43;100852.53;1694379;83;20265;-81
2021/12/21 13:12:28;;;;;;;;;;;;;;;-1.35;63.61;100867.09;1693552;83;20185;-82
2021/12/21 13:14:53;;;;;;;;;;;;;;;-1.53;64.10;100860.91;1679777;83;20992;-81
2021/12/21 13:17:19;;;;;;;;;;;;;;;-1.50;64.57;100864.22;1688530;83;20273;-81
2021/12/21 13:19:44;;;;;;;;;;;;;;;-1.42;64.69;100859.19;1693647;83;20157;-85
2021/12/21 13:22:10;;;;;;;;;;;;;;;-1.50;65.06;100875.88;1686063;83;20139;-83
2021/12/21 13:24:42;;;;;;;;;;;;;;;-1.51;65.02;100869.45;1687389;83;20154;-86
2021/12/21 13:27:09;;;;;;;;;;;;;;;-1.49;65.09;100874.11;1686666;83;20229;-81
2021/12/21 13:29:35;;;;;;;;;;;;;;;-1.67;65.88;100884.77;1689444;83;20160;-81
2021/12/21 13:32:04;;;;;;;;;;;;;;;-1.76;66.60;100863.94;1685603;83;20474;-80
2021/12/21 13:34:30;;;;;;;;;;;;;;;-1.65;66.66;100859.64;1680310;83;20514;-80